createdAt,value
2022-11-15T00:00:30.602Z,6.07
2022-11-15T00:02:57.106Z,6.03
2022-11-15T00:05:23.607Z,5.70
2022-11-15T00:07:55.647Z,4.97
2022-11-15T00:10:22.543Z,5.55
2022-11-15T00:12:48.819Z,3.85
2022-11-15T00:15:15.251Z,4.15
2022-11-15T00:17:41.527Z,5.07
2022-11-15T00:20:08.192Z,4.72
2022-11-15T00:22:34.972Z,5.30
2022-11-15T00:25:01.262Z,5.60
2022-11-15T00:27:28.246Z,6.35
2022-11-15T00:29:54.659Z,5.88
2022-11-15T00:32:20.952Z,7.18
2022-11-15T00:34:47.256Z,6.65
2022-11-15T00:37:13.663Z,4.78
2022-11-15T00:39:39.944Z,4.03
2022-11-15T00:42:06.241Z,5.40
2022-11-15T00:44:32.558Z,4.78
2022-11-15T00:46:58.842Z,5.43
2022-11-15T00:49:25.130Z,4.43
2022-11-15T00:51:51.530Z,6.32
2022-11-15T00:54:17.823Z,7.28
2022-11-15T00:56:44.131Z,6.82
2022-11-15T00:59:10.446Z,8.35
2022-11-15T01:01:36.853Z,5.47
2022-11-15T01:04:03.135Z,6.85
2022-11-15T01:06:29.538Z,8.38
2022-11-15T01:08:55.925Z,5.90
2022-11-15T01:11:22.218Z,5.63
2022-11-15T01:13:48.664Z,5.03
2022-11-15T01:16:17.903Z,5.65
2022-11-15T01:18:44.706Z,4.10
2022-11-15T01:21:12.358Z,4.90
2022-11-15T01:23:38.779Z,5.75
2022-11-15T01:26:06.386Z,5.43
2022-11-15T01:28:33.845Z,5.07
2022-11-15T01:31:00.977Z,4.03
2022-11-15T01:33:27.750Z,6.43
2022-11-15T01:35:54.333Z,5.57
2022-11-15T01:38:20.620Z,5.13
2022-11-15T01:40:46.908Z,5.00
2022-11-15T01:43:20.138Z,6.82
2022-11-15T01:45:47.898Z,5.10
2022-11-15T01:48:14.221Z,5.05
2022-11-15T01:50:40.725Z,9.00
2022-11-15T01:53:07.033Z,7.03
2022-11-15T01:55:33.405Z,5.28
2022-11-15T01:58:02.768Z,4.35
2022-11-15T02:00:30.081Z,6.15
2022-11-15T02:02:56.416Z,8.60
2022-11-15T02:05:22.876Z,5.85
2022-11-15T02:07:49.547Z,6.93
2022-11-15T02:10:20.276Z,6.95
2022-11-15T02:12:46.944Z,6.75
2022-11-15T02:15:13.711Z,6.78
2022-11-15T02:17:43.146Z,8.38
2022-11-15T02:20:26.729Z,6.82
2022-11-15T02:23:12.162Z,7.00
2022-11-15T02:25:57.291Z,8.07
2022-11-15T02:28:38.797Z,7.00
2022-11-15T02:31:25.457Z,6.70
2022-11-15T02:33:57.851Z,7.13
2022-11-15T02:36:34.971Z,9.98
2022-11-15T02:39:07.136Z,5.93
2022-11-15T02:41:40.924Z,7.97
2022-11-15T02:44:20.042Z,6.88
2022-11-15T02:47:08.301Z,7.70
2022-11-15T02:49:35.856Z,7.85
2022-11-15T02:52:02.167Z,10.05
2022-11-15T02:54:32.797Z,5.75
2022-11-15T02:57:05.160Z,5.28
2022-11-15T02:59:50.654Z,5.57
2022-11-15T03:02:16.957Z,5.53
2022-11-15T03:04:53.687Z,6.20
2022-11-15T03:07:26.398Z,4.63
2022-11-15T03:10:11.636Z,4.35
2022-11-15T03:12:41.045Z,5.90
2022-11-15T03:15:19.196Z,4.20
2022-11-15T03:17:54.493Z,5.75
2022-11-15T03:20:20.826Z,4.43
2022-11-15T03:22:48.460Z,4.35
2022-11-15T03:25:18.339Z,5.22
2022-11-15T03:27:47.507Z,4.75
2022-11-15T03:30:14.288Z,5.22
2022-11-15T03:32:54.986Z,5.03
2022-11-15T03:35:22.398Z,4.57
2022-11-15T03:37:48.748Z,4.43
2022-11-15T03:40:16.033Z,6.60
2022-11-15T03:42:52.566Z,4.45
2022-11-15T03:45:22.916Z,3.67
2022-11-15T03:47:52.457Z,5.07
2022-11-15T03:50:20.109Z,6.63
2022-11-15T03:52:47.646Z,4.10
2022-11-15T03:55:16.130Z,3.65
2022-11-15T03:57:42.645Z,3.47
2022-11-15T04:00:09.360Z,3.25
2022-11-15T04:02:35.645Z,4.45
2022-11-15T04:05:02.008Z,5.55
2022-11-15T04:07:28.509Z,3.60
2022-11-15T04:10:04.421Z,5.43
2022-11-15T04:12:34.614Z,3.40
2022-11-15T04:15:08.610Z,4.63
2022-11-15T04:17:39.461Z,3.38
2022-11-15T04:20:25.555Z,4.13
2022-11-15T04:23:17.087Z,2.63
2022-11-15T04:25:44.201Z,2.53
2022-11-15T04:28:11.056Z,2.20
2022-11-15T04:30:37.427Z,4.03
2022-11-15T04:33:04.168Z,3.13
2022-11-15T04:35:30.552Z,3.75
2022-11-15T04:37:57.564Z,2.80
2022-11-15T04:40:23.842Z,3.20
2022-11-15T04:42:50.251Z,2.92
2022-11-15T04:45:16.707Z,2.67
2022-11-15T04:47:46.434Z,2.67
2022-11-15T04:50:16.361Z,3.83
2022-11-15T04:52:52.103Z,3.53
2022-11-15T04:55:18.568Z,3.22
2022-11-15T04:57:44.900Z,2.70
2022-11-15T05:00:15.644Z,2.65
2022-11-15T05:03:00.594Z,2.47
2022-11-15T05:05:27.143Z,2.10
2022-11-15T05:07:53.458Z,2.22
2022-11-15T05:10:19.834Z,1.48
2022-11-15T05:12:47.323Z,0.90
2022-11-15T05:15:13.672Z,1.33
2022-11-15T05:17:40.024Z,1.20
2022-11-15T05:20:06.843Z,2.03
2022-11-15T05:22:33.182Z,2.58
2022-11-15T05:24:59.517Z,3.53
2022-11-15T05:27:25.922Z,2.92
2022-11-15T05:29:52.279Z,2.17
2022-11-15T05:32:18.744Z,2.05
2022-11-15T05:34:45.076Z,2.13
2022-11-15T05:37:11.385Z,2.55
2022-11-15T05:39:37.667Z,3.88
2022-11-15T05:42:03.979Z,3.05
2022-11-15T05:44:31.556Z,5.10
2022-11-15T05:46:58.020Z,3.00
2022-11-15T05:49:27.086Z,3.50
2022-11-15T05:51:53.959Z,3.38
2022-11-15T05:54:21.598Z,3.78
2022-11-15T05:56:48.008Z,3.38
2022-11-15T05:59:14.462Z,4.90
2022-11-15T06:01:41.133Z,2.67
2022-11-15T06:04:07.665Z,3.58
2022-11-15T06:06:33.958Z,2.88
2022-11-15T06:09:00.242Z,3.53
2022-11-15T06:11:26.646Z,3.05
2022-11-15T06:13:52.952Z,1.98
2022-11-15T06:16:19.298Z,1.77
2022-11-15T06:18:45.841Z,1.90
2022-11-15T06:21:12.221Z,2.08
2022-11-15T06:23:38.595Z,2.88
2022-11-15T06:26:05.138Z,2.22
2022-11-15T06:28:34.643Z,2.00
2022-11-15T06:31:04.833Z,1.80
2022-11-15T06:33:31.545Z,2.00
2022-11-15T06:36:01.141Z,2.15
2022-11-15T06:38:27.537Z,3.20
2022-11-15T06:40:53.975Z,2.20
2022-11-15T06:43:20.316Z,1.23
2022-11-15T06:45:46.709Z,1.60
2022-11-15T06:48:13.254Z,1.20
2022-11-15T06:50:39.606Z,1.48
2022-11-15T06:53:05.927Z,1.20
2022-11-15T06:55:32.362Z,1.10
2022-11-15T06:57:58.701Z,1.15
2022-11-15T07:00:25.060Z,0.93
2022-11-15T07:02:51.437Z,0.70
2022-11-15T07:05:17.856Z,0.50
2022-11-15T07:07:44.287Z,1.13
2022-11-15T07:10:10.895Z,1.20
2022-11-15T07:12:37.255Z,1.33
2022-11-15T07:15:03.873Z,1.80
2022-11-15T07:17:30.303Z,2.38
2022-11-15T07:19:56.657Z,3.17
2022-11-15T07:22:22.961Z,2.78
2022-11-15T07:24:49.351Z,2.10
2022-11-15T07:27:15.811Z,1.88
2022-11-15T07:29:42.405Z,1.50
2022-11-15T07:32:08.729Z,2.00
2022-11-15T07:34:35.084Z,3.20
2022-11-15T07:37:01.406Z,1.88
2022-11-15T07:39:28.035Z,2.25
2022-11-15T07:42:14.301Z,1.67
2022-11-15T07:44:40.706Z,2.17
2022-11-15T07:47:06.987Z,1.88
2022-11-15T07:49:33.332Z,2.22
2022-11-15T07:51:59.679Z,2.97
2022-11-15T07:54:26.021Z,2.63
2022-11-15T07:56:52.332Z,4.13
2022-11-15T07:59:18.733Z,2.45
2022-11-15T08:01:45.167Z,2.42
2022-11-15T08:04:12.037Z,2.45
2022-11-15T08:06:38.806Z,2.42
2022-11-15T08:09:05.168Z,2.40
2022-11-15T08:11:31.451Z,2.95
2022-11-15T08:13:57.889Z,2.80
2022-11-15T08:16:24.163Z,2.25
2022-11-15T08:18:50.492Z,2.90
2022-11-15T08:21:20.098Z,2.92
2022-11-15T08:23:46.465Z,2.72
2022-11-15T08:26:12.777Z,3.55
2022-11-15T08:28:39.210Z,2.30
2022-11-15T08:31:05.613Z,3.08
2022-11-15T08:33:32.787Z,2.75
2022-11-15T08:36:02.558Z,2.70
2022-11-15T08:38:32.333Z,3.72
2022-11-15T08:41:04.612Z,1.58
2022-11-15T08:43:31.424Z,3.25
2022-11-15T08:45:57.933Z,2.97
2022-11-15T08:48:24.361Z,2.55
2022-11-15T08:50:54.068Z,3.28
2022-11-15T08:53:20.424Z,3.88
2022-11-15T08:55:46.754Z,4.03
2022-11-15T08:58:13.151Z,5.95
2022-11-15T09:00:39.427Z,3.65
2022-11-15T09:03:06.934Z,3.85
2022-11-15T09:05:33.752Z,5.88
2022-11-15T09:08:00.058Z,6.47
2022-11-15T09:10:26.519Z,3.67
2022-11-15T09:12:52.919Z,3.35
2022-11-15T09:15:20.619Z,3.88
2022-11-15T09:17:47.069Z,3.25
2022-11-15T09:20:13.460Z,3.38
2022-11-15T09:22:40.122Z,4.57
2022-11-15T09:25:10.062Z,5.68
2022-11-15T09:27:37.563Z,4.40
2022-11-15T09:30:04.244Z,4.32
2022-11-15T09:32:37.785Z,3.55
2022-11-15T09:35:05.436Z,3.65
2022-11-15T09:37:33.221Z,3.13
2022-11-15T09:39:59.504Z,4.15
2022-11-15T09:42:42.454Z,3.67
2022-11-15T09:45:15.950Z,4.93
2022-11-15T09:47:48.573Z,3.42
2022-11-15T09:50:16.668Z,4.45
2022-11-15T09:52:44.992Z,2.70
2022-11-15T09:55:14.718Z,3.90
2022-11-15T09:57:59.710Z,4.18
2022-11-15T10:00:45.827Z,3.97
2022-11-15T10:03:35.370Z,5.75
2022-11-15T10:06:03.879Z,3.60
2022-11-15T10:08:42.628Z,4.32
2022-11-15T10:14:00.284Z,4.28
2022-11-15T10:16:45.399Z,5.65
2022-11-15T10:19:31.946Z,4.13
2022-11-15T10:21:58.311Z,4.57
2022-11-15T10:24:29.233Z,5.80
2022-11-15T10:26:56.291Z,4.45
2022-11-15T10:29:26.710Z,3.97
2022-11-15T10:31:54.130Z,3.70
2022-11-15T10:34:24.421Z,3.75
2022-11-15T10:37:02.871Z,3.40
2022-11-15T10:39:29.566Z,3.25
2022-11-15T10:41:56.136Z,3.67
2022-11-15T10:44:32.361Z,2.50
2022-11-15T10:46:58.614Z,4.32
2022-11-15T10:49:32.511Z,3.05
2022-11-15T10:51:58.924Z,2.97
2022-11-15T10:54:29.715Z,2.65
2022-11-15T10:56:58.152Z,3.83
2022-11-15T10:59:38.745Z,2.75
2022-11-15T11:02:24.231Z,2.20
2022-11-15T11:04:51.471Z,2.47
2022-11-15T11:07:22.954Z,2.38
2022-11-15T11:09:57.336Z,2.13
2022-11-15T11:12:28.286Z,2.33
2022-11-15T11:14:54.645Z,2.53
2022-11-15T11:17:20.978Z,3.35
2022-11-15T11:20:02.644Z,3.00
2022-11-15T11:22:28.947Z,2.58
2022-11-15T11:25:09.361Z,2.25
2022-11-15T11:27:38.769Z,2.67
2022-11-15T11:30:25.384Z,3.67
2022-11-15T11:32:55.246Z,2.30
2022-11-15T11:35:33.327Z,2.05
2022-11-15T11:38:10.723Z,1.80
2022-11-15T11:40:39.870Z,1.75
2022-11-15T11:43:06.236Z,2.00
2022-11-15T11:45:50.327Z,2.55
2022-11-15T11:48:36.868Z,3.00
2022-11-15T11:51:09.431Z,3.15
2022-11-15T11:53:40.473Z,1.67
2022-11-15T11:56:27.161Z,2.27
2022-11-15T11:58:54.660Z,2.15
2022-11-15T12:01:26.119Z,2.65
2022-11-15T12:03:56.584Z,1.60
2022-11-15T12:06:28.364Z,2.83
2022-11-15T12:08:57.472Z,1.95
2022-11-15T12:11:36.104Z,2.10
2022-11-15T12:14:06.785Z,2.05
2022-11-15T12:16:33.632Z,2.80
2022-11-15T12:19:01.169Z,2.50
2022-11-15T12:21:37.464Z,2.33
2022-11-15T12:24:07.127Z,3.22
2022-11-15T12:26:39.027Z,4.18
2022-11-15T12:31:37.517Z,1.98
2022-11-15T12:34:22.201Z,3.35
2022-11-15T12:36:49.411Z,1.90
2022-11-15T12:39:16.347Z,2.35
2022-11-15T12:41:44.171Z,2.42
2022-11-15T12:44:34.010Z,3.85
2022-11-15T12:47:02.486Z,4.18
2022-11-15T12:49:28.769Z,2.28
2022-11-15T12:51:57.816Z,1.65
2022-11-15T12:54:24.226Z,2.28
2022-11-15T12:57:09.928Z,1.80
2022-11-15T13:00:02.818Z,3.13
2022-11-15T13:02:35.312Z,1.60
2022-11-15T13:05:17.161Z,1.88
2022-11-15T13:07:43.730Z,2.28
2022-11-15T13:10:12.814Z,1.67
2022-11-15T13:12:45.370Z,3.47
2022-11-15T13:15:14.546Z,4.22
2022-11-15T13:17:45.507Z,3.38
2022-11-15T13:20:11.989Z,1.73
2022-11-15T13:22:59.891Z,1.52
2022-11-15T13:25:41.213Z,3.50
2022-11-15T13:28:10.487Z,2.15
2022-11-15T13:30:37.404Z,2.08
2022-11-15T13:33:11.788Z,1.85
2022-11-15T13:35:40.482Z,1.85
2022-11-15T13:38:07.066Z,2.67
2022-11-15T13:40:37.362Z,1.92
2022-11-15T13:43:35.923Z,2.13
2022-11-15T13:46:13.135Z,2.22
2022-11-15T13:48:40.352Z,2.03
2022-11-15T13:51:15.646Z,1.65
2022-11-15T13:53:44.268Z,2.17
2022-11-15T13:56:10.708Z,2.33
2022-11-15T13:58:38.911Z,2.92
2022-11-15T14:01:05.833Z,2.45
2022-11-15T14:03:33.632Z,2.53
2022-11-15T14:06:04.417Z,2.13
2022-11-15T14:08:30.999Z,1.90
2022-11-15T14:11:08.604Z,2.10
2022-11-15T14:13:35.482Z,3.58
2022-11-15T14:16:21.647Z,2.83
2022-11-15T14:18:49.281Z,3.53
2022-11-15T14:21:15.953Z,7.60
2022-11-15T14:23:42.447Z,3.35
2022-11-15T14:26:12.808Z,4.15
2022-11-15T14:28:42.132Z,2.67
2022-11-15T14:31:13.325Z,2.08
2022-11-15T14:33:40.174Z,1.92
2022-11-15T14:36:14.179Z,2.83
2022-11-15T14:38:40.574Z,3.63
2022-11-15T14:41:06.875Z,3.40
2022-11-15T14:43:33.280Z,3.72
2022-11-15T14:46:00.145Z,2.42
2022-11-15T14:48:26.496Z,2.97
2022-11-15T14:50:52.905Z,2.00
2022-11-15T14:53:20.790Z,3.30
2022-11-15T14:55:47.170Z,2.50
2022-11-15T14:58:13.680Z,3.92
2022-11-15T15:00:40.588Z,2.17
2022-11-15T15:03:07.363Z,3.45
2022-11-15T15:05:35.329Z,3.75
2022-11-15T15:08:02.099Z,3.55
2022-11-15T15:10:40.985Z,2.45
2022-11-15T15:13:13.630Z,2.33
2022-11-15T15:18:06.540Z,2.92
2022-11-15T15:20:33.419Z,4.30
2022-11-15T15:22:59.747Z,3.30
2022-11-15T15:25:30.140Z,3.22
2022-11-15T15:27:57.008Z,3.20
2022-11-15T15:30:23.930Z,2.90
2022-11-15T15:32:50.321Z,2.00
2022-11-15T15:35:17.375Z,2.25
2022-11-15T15:37:44.517Z,2.33
2022-11-15T15:40:30.126Z,1.92
2022-11-15T15:42:56.581Z,3.67
2022-11-15T15:45:23.138Z,2.10
2022-11-15T15:47:50.568Z,3.20
2022-11-15T15:50:23.118Z,4.78
2022-11-15T15:52:50.158Z,4.80
2022-11-15T15:55:16.821Z,5.93
2022-11-15T15:57:43.201Z,5.35
2022-11-15T16:00:09.865Z,6.63
2022-11-15T16:02:40.303Z,5.50
2022-11-15T16:05:07.661Z,6.13
2022-11-15T16:07:34.140Z,6.07
2022-11-15T16:10:03.604Z,5.53
2022-11-15T16:12:33.397Z,4.85
2022-11-15T16:14:59.897Z,5.03
2022-11-15T16:17:32.824Z,6.47
2022-11-15T16:20:00.794Z,6.10
2022-11-15T16:22:27.240Z,5.50
2022-11-15T16:24:53.684Z,5.95
2022-11-15T16:27:21.236Z,5.45
2022-11-15T16:29:47.837Z,4.85
2022-11-15T16:32:14.629Z,6.53
2022-11-15T16:34:44.906Z,4.85
2022-11-15T16:37:23.675Z,4.88
2022-11-15T16:39:50.177Z,6.60
2022-11-15T16:42:17.258Z,5.85
2022-11-15T16:44:44.850Z,6.55
2022-11-15T16:47:18.671Z,7.10
2022-11-15T16:49:45.411Z,9.60
2022-11-15T16:52:11.752Z,7.47
2022-11-15T16:54:38.104Z,4.88
2022-11-15T16:57:04.420Z,5.85
2022-11-15T16:59:38.059Z,6.80
2022-11-15T17:02:04.846Z,6.28
2022-11-15T17:04:33.885Z,7.75
2022-11-15T17:07:00.286Z,7.70
2022-11-15T17:09:26.730Z,10.40
2022-11-15T17:11:53.476Z,6.75
2022-11-15T17:14:20.962Z,7.03
2022-11-15T17:16:47.564Z,7.30
2022-11-15T17:19:14.361Z,8.77
2022-11-15T17:21:41.007Z,5.47
2022-11-15T17:24:07.339Z,5.85
2022-11-15T17:26:37.648Z,3.33
2022-11-15T17:29:09.797Z,4.07
2022-11-15T17:31:36.723Z,5.15
2022-11-15T17:34:03.942Z,8.25
2022-11-15T17:36:30.486Z,5.65
2022-11-15T17:38:59.688Z,7.07
2022-11-15T17:41:27.018Z,8.98
2022-11-15T17:43:53.564Z,8.18
2022-11-15T17:46:21.080Z,7.22
2022-11-15T17:48:47.849Z,4.68
2022-11-15T17:51:15.168Z,4.78
2022-11-15T17:53:42.788Z,4.43
2022-11-15T17:56:10.354Z,2.95
2022-11-15T17:58:36.876Z,3.50
2022-11-15T18:01:22.306Z,3.72
2022-11-15T18:03:49.105Z,4.32
2022-11-15T18:06:16.194Z,3.13
2022-11-15T18:08:43.802Z,2.28
2022-11-15T18:11:15.419Z,4.72
2022-11-15T18:13:42.448Z,4.43
2022-11-15T18:16:10.476Z,3.97
2022-11-15T18:18:37.010Z,1.45
2022-11-15T18:21:08.099Z,1.85
2022-11-15T18:23:35.118Z,2.50
2022-11-15T18:26:02.154Z,2.92
2022-11-15T18:28:33.127Z,2.63
2022-11-15T18:31:00.223Z,3.13
2022-11-15T18:33:27.067Z,3.42
2022-11-15T18:36:03.788Z,2.05
2022-11-15T18:38:31.098Z,2.30
2022-11-15T18:41:07.642Z,4.55
2022-11-15T18:43:34.565Z,3.03
2022-11-15T18:46:11.831Z,2.33
2022-11-15T18:48:39.721Z,1.80
2022-11-15T18:51:07.343Z,1.40
2022-11-15T18:53:34.689Z,2.33
2022-11-15T18:56:02.244Z,1.65
2022-11-15T18:58:30.301Z,1.60
2022-11-15T19:01:00.733Z,2.42
2022-11-15T19:03:27.258Z,2.78
2022-11-15T19:06:00.344Z,2.10
2022-11-15T19:08:28.688Z,2.10
2022-11-15T19:10:57.135Z,4.68
2022-11-15T19:13:23.823Z,2.00
2022-11-15T19:15:56.594Z,2.70
2022-11-15T19:18:22.913Z,1.77
2022-11-15T19:20:49.889Z,2.60
2022-11-15T19:23:16.217Z,2.80
2022-11-15T19:25:42.517Z,1.73
2022-11-15T19:28:08.835Z,1.48
2022-11-15T19:30:35.174Z,1.38
2022-11-15T19:33:01.581Z,1.00
2022-11-15T19:35:27.880Z,2.22
2022-11-15T19:38:02.172Z,2.20
2022-11-15T19:40:29.007Z,2.40
2022-11-15T19:42:55.624Z,1.63
2022-11-15T19:45:21.946Z,2.45
2022-11-15T19:47:48.302Z,1.42
2022-11-15T19:50:14.813Z,1.92
2022-11-15T19:52:41.147Z,1.92
2022-11-15T19:55:07.995Z,1.15
2022-11-15T19:57:34.458Z,1.95
2022-11-15T20:00:05.742Z,1.80
2022-11-15T20:02:33.459Z,2.55
2022-11-15T20:04:59.882Z,2.53
2022-11-15T20:07:26.251Z,3.08
2022-11-15T20:09:53.275Z,3.85
2022-11-15T20:12:19.643Z,1.90
2022-11-15T20:14:46.529Z,1.70
2022-11-15T20:17:13.843Z,2.40
2022-11-15T20:19:40.268Z,2.55
2022-11-15T20:22:06.557Z,2.60
2022-11-15T20:24:32.864Z,1.65
2022-11-15T20:26:59.272Z,2.85
2022-11-15T20:29:25.678Z,2.80
2022-11-15T20:31:51.986Z,1.35
2022-11-15T20:34:18.394Z,1.25
2022-11-15T20:36:44.955Z,1.90
2022-11-15T20:39:11.284Z,2.33
2022-11-15T20:41:37.594Z,1.75
2022-11-15T20:44:04.026Z,3.13
2022-11-15T20:46:30.328Z,3.38
2022-11-15T20:48:56.660Z,2.85
2022-11-15T20:51:23.015Z,3.40
2022-11-15T20:53:49.340Z,2.72
2022-11-15T20:56:17.543Z,3.85
2022-11-15T20:58:45.693Z,2.60
2022-11-15T21:01:14.168Z,3.42
2022-11-15T21:03:40.985Z,2.55
2022-11-15T21:06:07.437Z,1.75
2022-11-15T21:08:53.764Z,1.90
2022-11-15T21:11:38.654Z,1.90
2022-11-15T21:14:09.070Z,1.52
2022-11-15T21:16:36.038Z,4.03
2022-11-15T21:19:02.334Z,2.42
2022-11-15T21:21:29.035Z,1.80
2022-11-15T21:23:55.334Z,2.47
2022-11-15T21:26:21.644Z,2.65
2022-11-15T21:28:48.079Z,2.28
2022-11-15T21:31:14.436Z,1.50
2022-11-15T21:33:40.727Z,2.80
2022-11-15T21:36:07.427Z,2.10
2022-11-15T21:38:34.045Z,2.45
2022-11-15T21:41:02.927Z,1.50
2022-11-15T21:43:29.327Z,1.48
2022-11-15T21:45:56.319Z,2.10
2022-11-15T21:48:22.753Z,0.90
2022-11-15T21:51:02.306Z,0.70
2022-11-15T21:53:29.168Z,1.23
2022-11-15T21:55:55.463Z,0.77
2022-11-15T21:58:22.224Z,0.70
2022-11-15T22:01:07.337Z,1.17
2022-11-15T22:03:34.037Z,1.33
2022-11-15T22:06:00.407Z,0.70
2022-11-15T22:08:26.723Z,1.10
2022-11-15T22:10:53.520Z,0.70
2022-11-15T22:13:20.402Z,1.08
2022-11-15T22:15:48.067Z,1.63
2022-11-15T22:18:14.505Z,0.98
2022-11-15T22:20:45.175Z,2.42
2022-11-15T22:23:11.753Z,2.00
2022-11-15T22:25:38.185Z,2.45
2022-11-15T22:28:04.600Z,1.83
2022-11-15T22:30:30.934Z,3.88
2022-11-15T22:32:57.522Z,3.05
2022-11-15T22:35:23.819Z,5.40
2022-11-15T22:37:50.135Z,7.03
2022-11-15T22:40:16.617Z,4.32
2022-11-15T22:42:43.122Z,3.58
2022-11-15T22:45:09.516Z,3.67
2022-11-15T22:47:35.943Z,4.10
2022-11-15T22:50:02.333Z,2.58
2022-11-15T22:52:28.638Z,4.35
2022-11-15T22:54:55.145Z,2.92
2022-11-15T22:57:21.515Z,4.70
2022-11-15T22:59:47.956Z,3.25
2022-11-15T23:02:14.341Z,3.58
2022-11-15T23:04:40.713Z,5.05
2022-11-15T23:07:07.130Z,4.95
2022-11-15T23:09:33.504Z,7.28
2022-11-15T23:12:18.680Z,4.93
2022-11-15T23:14:45.044Z,4.90
2022-11-15T23:17:11.352Z,3.15
2022-11-15T23:19:37.737Z,4.55
2022-11-15T23:22:22.774Z,3.95
2022-11-15T23:24:49.215Z,4.78
2022-11-15T23:27:19.773Z,4.43
2022-11-15T23:30:05.127Z,2.47
2022-11-15T23:32:50.225Z,3.17
2022-11-15T23:35:16.637Z,1.95
2022-11-15T23:37:42.982Z,2.42
2022-11-15T23:40:09.661Z,2.72
2022-11-15T23:42:36.134Z,2.65
2022-11-15T23:45:02.464Z,3.53
2022-11-15T23:47:28.811Z,3.95
2022-11-15T23:49:55.211Z,3.65
2022-11-15T23:52:23.084Z,3.67
2022-11-15T23:54:49.940Z,6.07
2022-11-15T23:57:16.299Z,4.18
2022-11-15T23:59:45.747Z,3.83
